createdAt,value
2018-11-20T00:04:55.050Z,2.60
2018-11-20T00:07:54.359Z,3.60
2018-11-20T00:10:55.473Z,3.57
2018-11-20T00:13:45.049Z,2.13
2018-11-20T00:19:27.898Z,2.60
2018-11-20T00:28:35.348Z,1.80
2018-11-20T00:34:42.729Z,3.20
2018-11-20T00:37:42.851Z,2.53
2018-11-20T00:40:42.604Z,2.57
2018-11-20T00:43:41.912Z,6.30
2018-11-20T00:46:34.406Z,3.00
2018-11-20T00:49:15.233Z,2.53
2018-11-20T00:52:14.890Z,2.40
2018-11-20T00:58:33.868Z,2.83
2018-11-20T01:01:20.991Z,3.17
2018-11-20T01:04:28.412Z,3.20
2018-11-20T01:07:35.532Z,3.10
2018-11-20T01:10:42.651Z,2.53
2018-11-20T01:13:50.106Z,3.83
2018-11-20T01:16:57.225Z,2.87
2018-11-20T01:22:58.741Z,2.67
2018-11-20T01:26:06.463Z,3.20
2018-11-20T01:32:40.005Z,3.23
2018-11-20T01:35:47.176Z,2.10
2018-11-20T01:38:54.545Z,2.40
2018-11-20T01:42:01.660Z,3.53
2018-11-20T01:45:08.791Z,2.60
2018-11-20T01:48:15.922Z,3.27
2018-11-20T01:51:16.166Z,4.37
2018-11-20T01:54:22.872Z,3.33
2018-11-20T01:57:30.245Z,2.10
2018-11-20T02:00:37.592Z,3.33
2018-11-20T02:03:44.727Z,4.37
2018-11-20T02:06:51.844Z,3.37
2018-11-20T02:09:59.000Z,3.37
2018-11-20T02:23:16.171Z,2.87
2018-11-20T02:35:13.135Z,2.83
2018-11-20T02:45:11.763Z,6.43
2018-11-20T02:48:19.140Z,4.70
2018-11-20T02:51:26.511Z,4.13
2018-11-20T02:54:33.626Z,3.60
2018-11-20T03:00:44.032Z,5.27
2018-11-20T03:03:51.495Z,3.27
2018-11-20T03:06:42.095Z,4.83
2018-11-20T03:09:49.630Z,5.40
2018-11-20T03:12:56.774Z,7.30
2018-11-20T03:15:52.637Z,5.33
2018-11-20T03:19:00.018Z,4.30
2018-11-20T03:21:48.491Z,5.53
2018-11-20T03:24:55.850Z,6.10
2018-11-20T03:28:03.212Z,5.50
2018-11-20T03:31:29.368Z,3.60
2018-11-20T03:34:36.721Z,4.43
2018-11-20T03:37:44.066Z,6.37
2018-11-20T03:40:51.471Z,4.97
2018-11-20T03:43:47.230Z,4.37
2018-11-20T03:46:55.044Z,4.97
2018-11-20T03:50:02.160Z,4.55
2018-11-20T03:53:09.568Z,4.67
2018-11-20T03:56:16.934Z,3.67
2018-11-20T03:59:24.892Z,4.90
2018-11-20T04:02:32.249Z,5.07
2018-11-20T04:05:22.702Z,4.83
2018-11-20T04:08:30.056Z,4.97
2018-11-20T04:11:37.177Z,6.30
2018-11-20T04:14:44.539Z,6.87
2018-11-20T04:17:52.005Z,4.97
2018-11-20T04:20:46.372Z,4.30
2018-11-20T04:23:53.661Z,4.47
2018-11-20T04:27:01.023Z,4.43
2018-11-20T04:30:27.232Z,5.75
2018-11-20T04:37:19.487Z,5.57
2018-11-20T04:40:27.065Z,7.40
2018-11-20T04:43:34.589Z,6.43
2018-11-20T04:46:30.531Z,9.17
2018-11-20T04:49:37.891Z,10.87
2018-11-20T04:52:45.258Z,6.67
2018-11-20T04:55:52.414Z,5.03
2018-11-20T04:58:42.789Z,6.73
2018-11-20T05:05:23.444Z,6.27
2018-11-20T05:08:30.793Z,4.80
2018-11-20T05:11:38.151Z,6.30
2018-11-20T05:14:45.525Z,5.73
2018-11-20T05:17:52.922Z,5.97
2018-11-20T05:21:00.076Z,5.10
2018-11-20T05:24:07.480Z,6.13
2018-11-20T05:27:04.287Z,5.63
2018-11-20T05:30:11.413Z,4.15
2018-11-20T05:33:14.055Z,5.20
2018-11-20T05:39:10.462Z,4.25
2018-11-20T05:42:08.653Z,6.65
2018-11-20T05:45:16.121Z,7.03
2018-11-20T05:48:23.477Z,7.93
2018-11-20T05:51:33.140Z,4.83
2018-11-20T05:57:53.470Z,4.97
2018-11-20T06:01:00.572Z,4.37
2018-11-20T06:04:07.701Z,4.42
2018-11-20T06:07:15.440Z,6.37
2018-11-20T06:10:03.960Z,8.07
2018-11-20T06:13:11.412Z,5.33
2018-11-20T06:16:18.528Z,6.10
2018-11-20T06:19:25.682Z,4.10
2018-11-20T06:22:32.816Z,4.83
2018-11-20T06:25:40.210Z,6.60
2018-11-20T06:28:47.411Z,7.13
2018-11-20T06:38:20.444Z,4.97
2018-11-20T06:41:27.849Z,6.27
2018-11-20T06:44:35.135Z,8.07
2018-11-20T06:47:42.508Z,7.03
2018-11-20T06:50:49.680Z,4.30
2018-11-20T06:53:57.065Z,5.33
2018-11-20T06:57:04.293Z,7.47
2018-11-20T07:03:36.694Z,5.73
2018-11-20T07:06:33.712Z,5.13
2018-11-20T07:09:40.852Z,6.73
2018-11-20T07:12:47.980Z,4.33
2018-11-20T07:15:55.642Z,7.90
2018-11-20T07:19:02.759Z,8.57
2018-11-20T07:22:09.888Z,6.00
2018-11-20T07:25:17.256Z,8.37
2018-11-20T07:28:24.964Z,7.37
2018-11-20T07:34:42.129Z,6.30
2018-11-20T07:43:53.350Z,10.13
2018-11-20T07:47:00.272Z,12.87
2018-11-20T07:50:07.660Z,6.97
2018-11-20T07:53:15.056Z,9.83
2018-11-20T07:56:22.348Z,10.20
2018-11-20T07:59:30.092Z,9.63
2018-11-20T08:02:37.232Z,8.67
2018-11-20T08:05:49.781Z,7.43
2018-11-20T08:08:46.646Z,9.87
2018-11-20T08:11:53.770Z,6.83
2018-11-20T08:15:00.909Z,7.90
2018-11-20T08:18:08.282Z,6.42
2018-11-20T08:21:15.671Z,7.90
2018-11-20T08:24:23.029Z,6.80
2018-11-20T08:27:30.162Z,12.17
2018-11-20T08:34:07.115Z,10.72
2018-11-20T08:36:55.846Z,11.33
2018-11-20T08:40:03.226Z,14.70
2018-11-20T08:43:10.587Z,5.40
2018-11-20T08:46:17.952Z,8.57
2018-11-20T08:49:25.293Z,9.70
2018-11-20T08:55:57.598Z,4.83
2018-11-20T08:59:04.980Z,4.50
2018-11-20T09:02:12.130Z,8.53
2018-11-20T09:04:55.171Z,4.47
2018-11-20T09:08:02.689Z,6.03
2018-11-20T09:10:51.020Z,5.23
2018-11-20T09:13:50.576Z,5.20
2018-11-20T09:16:57.692Z,5.57
2018-11-20T09:19:58.026Z,5.63
2018-11-20T09:22:57.657Z,5.53
2018-11-20T09:25:56.893Z,6.60
2018-11-20T09:28:56.873Z,6.77
2018-11-20T09:34:45.719Z,7.60
2018-11-20T09:37:53.028Z,5.20
2018-11-20T09:41:05.598Z,5.00
2018-11-20T09:44:31.844Z,8.87
2018-11-20T09:47:39.195Z,6.87
2018-11-20T09:50:46.769Z,6.33
2018-11-20T09:53:53.888Z,6.77
2018-11-20T09:59:46.862Z,5.77
2018-11-20T10:02:54.448Z,27.30
2018-11-20T10:05:35.987Z,6.00
2018-11-20T10:08:43.131Z,6.37
2018-11-20T10:14:45.814Z,6.70
2018-11-20T10:17:52.824Z,6.27
2018-11-20T10:20:59.960Z,6.83
2018-11-20T10:27:13.761Z,5.37
2018-11-20T10:30:20.874Z,8.00
2018-11-20T10:33:28.060Z,7.87
2018-11-20T10:36:35.180Z,8.30
2018-11-20T10:39:42.319Z,10.80
2018-11-20T10:42:49.734Z,5.77
2018-11-20T10:45:57.224Z,6.53
2018-11-20T10:49:04.575Z,5.28
2018-11-20T10:52:11.936Z,4.87
2018-11-20T10:55:19.059Z,5.53
2018-11-20T10:58:26.358Z,7.03
2018-11-20T11:01:33.477Z,7.43
2018-11-20T11:04:40.913Z,5.20
2018-11-20T11:07:36.972Z,7.83
2018-11-20T11:13:47.637Z,7.73
2018-11-20T11:16:45.530Z,6.50
2018-11-20T11:19:53.188Z,15.88
2018-11-20T11:22:41.628Z,6.50
2018-11-20T11:25:48.743Z,8.17
2018-11-20T11:28:56.213Z,7.10
2018-11-20T11:31:47.107Z,6.37
2018-11-20T11:34:54.272Z,7.33
2018-11-20T11:38:01.634Z,6.13
2018-11-20T11:47:32.082Z,6.23
2018-11-20T11:50:39.270Z,6.17
2018-11-20T11:53:46.402Z,6.80
2018-11-20T11:56:53.793Z,16.67
2018-11-20T12:00:01.144Z,16.93
2018-11-20T12:06:15.187Z,15.93
2018-11-20T12:13:06.214Z,6.77
2018-11-20T12:16:13.339Z,6.00
2018-11-20T12:22:32.315Z,5.67
2018-11-20T12:25:39.691Z,6.67
2018-11-20T12:28:53.119Z,5.40
2018-11-20T12:31:37.307Z,10.07
2018-11-20T12:34:44.487Z,13.50
2018-11-20T12:37:51.617Z,9.10
2018-11-20T12:40:58.919Z,11.40
2018-11-20T12:51:25.447Z,7.60
2018-11-20T12:54:31.002Z,6.87
2018-11-20T13:00:48.119Z,5.87
2018-11-20T13:03:55.484Z,5.13
2018-11-20T13:10:24.943Z,5.30
2018-11-20T13:13:32.103Z,5.30
2018-11-20T13:16:30.416Z,5.67
2018-11-20T13:19:38.529Z,6.17
2018-11-20T13:22:44.722Z,4.90
2018-11-20T13:25:51.869Z,4.53
2018-11-20T13:32:10.921Z,4.63
2018-11-20T13:35:07.301Z,6.37
2018-11-20T13:38:14.672Z,4.87
2018-11-20T13:41:40.825Z,6.03
2018-11-20T13:47:53.051Z,7.23
2018-11-20T13:50:39.964Z,4.93
2018-11-20T13:53:47.080Z,8.73
2018-11-20T14:06:02.920Z,14.80
2018-11-20T14:12:06.458Z,10.03
2018-11-20T14:15:06.456Z,7.10
2018-11-20T14:18:06.454Z,10.23
2018-11-20T14:20:45.797Z,9.37
2018-11-20T14:27:18.062Z,8.20
2018-11-20T14:30:14.912Z,8.83
2018-11-20T14:33:02.311Z,11.50
2018-11-20T14:36:10.631Z,6.77
2018-11-20T14:39:17.348Z,10.20
2018-11-20T14:42:24.558Z,7.27
2018-11-20T14:45:01.984Z,12.47
2018-11-20T14:48:08.714Z,9.85
2018-11-20T14:50:48.526Z,11.20
2018-11-20T14:53:56.873Z,6.80
2018-11-20T14:57:02.198Z,4.63
2018-11-20T15:00:08.936Z,6.97
2018-11-20T15:03:15.645Z,5.37
2018-11-20T15:06:22.393Z,9.23
2018-11-20T15:09:29.355Z,9.73
2018-11-20T15:12:36.245Z,10.53
2018-11-20T15:15:45.724Z,6.60
2018-11-20T15:18:44.075Z,7.57
2018-11-20T15:21:25.990Z,5.37
2018-11-20T15:24:33.046Z,7.17
2018-11-20T15:27:40.002Z,9.07
2018-11-20T15:30:46.818Z,7.87
2018-11-20T15:33:54.240Z,6.73
2018-11-20T15:40:00.730Z,6.57
2018-11-20T15:43:07.704Z,7.77
2018-11-20T15:45:43.966Z,6.80
2018-11-20T15:48:51.178Z,8.55
2018-11-20T15:51:39.160Z,7.00
2018-11-20T15:54:45.900Z,6.13
2018-11-20T15:57:52.921Z,4.43
2018-11-20T16:00:29.479Z,4.80
2018-11-20T16:03:36.196Z,6.77
2018-11-20T16:06:43.164Z,7.13
2018-11-20T16:09:49.927Z,6.00
2018-11-20T16:12:46.211Z,7.07
2018-11-20T16:15:45.303Z,10.23
2018-11-20T16:18:52.337Z,6.03
2018-11-20T16:21:46.653Z,6.28
2018-11-20T16:24:50.795Z,8.73
2018-11-20T16:27:36.729Z,8.57
2018-11-20T16:30:43.440Z,7.70
2018-11-20T16:33:50.404Z,6.37
2018-11-20T16:36:37.972Z,7.23
2018-11-20T16:39:44.922Z,9.97
2018-11-20T16:42:51.914Z,11.47
2018-11-20T16:48:52.474Z,4.93
2018-11-20T16:55:17.798Z,6.80
2018-11-20T16:58:24.750Z,5.60
2018-11-20T17:01:12.548Z,5.80
2018-11-20T17:04:19.273Z,7.50
2018-11-20T17:07:26.019Z,8.90
2018-11-20T17:10:32.973Z,5.57
2018-11-20T17:13:40.530Z,8.87
2018-11-20T17:16:47.917Z,10.63
2018-11-20T17:19:54.665Z,7.50
2018-11-20T17:23:01.634Z,7.13
2018-11-20T17:26:08.610Z,9.17
2018-11-20T17:29:15.573Z,7.37
2018-11-20T17:32:22.703Z,8.17
2018-11-20T17:35:32.269Z,7.73
2018-11-20T17:38:39.253Z,8.97
2018-11-20T17:41:46.017Z,5.93
2018-11-20T17:44:53.619Z,6.70
2018-11-20T17:47:38.869Z,10.00
2018-11-20T17:50:45.899Z,9.23
2018-11-20T17:53:52.623Z,6.87
2018-11-20T17:57:17.526Z,7.27
2018-11-20T18:00:25.288Z,11.70
2018-11-20T18:03:32.262Z,9.90
2018-11-20T18:09:28.263Z,10.60
2018-11-20T18:12:34.998Z,9.43
2018-11-20T18:15:41.783Z,8.03
2018-11-20T18:18:48.735Z,7.47
2018-11-20T18:21:36.126Z,10.27
2018-11-20T18:24:42.843Z,6.85
2018-11-20T18:27:49.731Z,10.97
2018-11-20T18:30:56.716Z,10.63
2018-11-20T18:34:03.701Z,14.58
2018-11-20T18:37:10.413Z,11.95
2018-11-20T18:40:17.241Z,10.23
2018-11-20T18:43:24.367Z,12.20
2018-11-20T18:46:10.466Z,9.93
2018-11-20T18:49:17.195Z,11.67
2018-11-20T18:55:34.951Z,16.67
2018-11-20T18:58:41.920Z,11.70
2018-11-20T19:01:49.606Z,13.70
2018-11-20T19:04:37.154Z,11.00
2018-11-20T19:07:27.646Z,12.03
2018-11-20T19:10:34.364Z,12.20
2018-11-20T19:13:41.129Z,13.83
2018-11-20T19:16:47.840Z,11.63
2018-11-20T19:19:35.695Z,11.50
2018-11-20T19:22:29.265Z,8.43
2018-11-20T19:29:10.408Z,11.53
2018-11-20T19:32:17.379Z,11.57
2018-11-20T19:38:27.858Z,9.03
2018-11-20T19:43:11.470Z,8.70
2018-11-20T19:45:57.856Z,8.00
2018-11-20T19:48:51.484Z,7.90
2018-11-20T19:51:48.340Z,10.63
2018-11-20T19:54:35.070Z,7.10
2018-11-20T19:57:26.449Z,10.20
2018-11-20T20:00:04.258Z,15.80
2018-11-20T20:02:51.414Z,8.00
2018-11-20T20:05:48.152Z,8.28
2018-11-20T20:08:42.746Z,9.07
2018-11-20T20:11:30.714Z,11.37
2018-11-20T20:14:27.112Z,6.70
2018-11-20T20:17:21.038Z,9.07
2018-11-20T20:20:07.538Z,6.20
2018-11-20T20:22:54.206Z,10.27
2018-11-20T20:25:47.203Z,12.45
2018-11-20T20:28:34.154Z,13.63
2018-11-20T20:31:20.395Z,9.53
2018-11-20T20:34:08.361Z,12.47
2018-11-20T20:36:56.135Z,10.37
2018-11-20T20:39:52.928Z,8.75
2018-11-20T20:42:46.476Z,11.03
2018-11-20T20:45:37.551Z,8.58
2018-11-20T20:48:35.881Z,9.97
2018-11-20T20:51:36.935Z,8.58
2018-11-20T20:54:32.030Z,9.80
2018-11-20T20:57:27.330Z,13.80
2018-11-20T21:00:13.923Z,10.80
2018-11-20T21:03:00.074Z,11.83
2018-11-20T21:05:49.336Z,11.80
2018-11-20T21:08:45.091Z,10.50
2018-11-20T21:11:26.903Z,8.00
2018-11-20T21:14:26.521Z,8.00
2018-11-20T21:17:19.462Z,10.80
2018-11-20T21:20:05.707Z,9.50
2018-11-20T21:22:53.788Z,10.05
2018-11-20T21:25:39.925Z,10.83
2018-11-20T21:28:18.816Z,12.10
2018-11-20T21:31:06.264Z,12.00
2018-11-20T21:33:53.821Z,10.70
2018-11-20T21:36:40.173Z,10.57
2018-11-20T21:39:29.601Z,9.73
2018-11-20T21:42:16.507Z,14.83
2018-11-20T21:45:15.729Z,8.60
2018-11-20T21:48:00.128Z,8.57
2018-11-20T21:51:06.413Z,8.23
2018-11-20T21:53:57.181Z,12.10
2018-11-20T21:56:54.361Z,11.33
2018-11-20T21:59:49.681Z,10.20
2018-11-20T22:02:36.666Z,15.93
2018-11-20T22:05:19.730Z,10.47
2018-11-20T22:08:05.788Z,12.87
2018-11-20T22:10:59.091Z,10.47
2018-11-20T22:13:41.848Z,8.80
2018-11-20T22:16:28.119Z,12.63
2018-11-20T22:19:14.363Z,10.50
2018-11-20T22:22:11.991Z,9.90
2018-11-20T22:24:58.256Z,10.97
2018-11-20T22:27:44.479Z,13.87
2018-11-20T22:30:37.508Z,6.83
2018-11-20T22:33:29.173Z,10.40
2018-11-20T22:36:14.980Z,13.27
2018-11-20T22:39:02.588Z,11.87
2018-11-20T22:42:00.091Z,12.03
2018-11-20T22:44:53.754Z,12.57
2018-11-20T22:47:40.212Z,10.93
2018-11-20T22:50:26.465Z,12.43
2018-11-20T22:53:14.972Z,8.70
2018-11-20T22:56:07.781Z,9.30
2018-11-20T22:59:01.348Z,13.40
2018-11-20T23:01:41.946Z,10.82
2018-11-20T23:04:39.073Z,12.73
2018-11-20T23:07:24.939Z,13.47
2018-11-20T23:09:53.580Z,11.73
2018-11-20T23:12:21.987Z,12.60
2018-11-20T23:14:50.543Z,11.60
2018-11-20T23:17:19.258Z,13.30
2018-11-20T23:19:47.671Z,15.03
2018-11-20T23:22:17.077Z,13.43
2018-11-20T23:24:45.829Z,11.78
2018-11-20T23:27:16.601Z,12.60
2018-11-20T23:29:43.049Z,10.90
2018-11-20T23:32:12.018Z,12.60
2018-11-20T23:34:40.557Z,12.10
2018-11-20T23:37:09.294Z,13.53
2018-11-20T23:39:38.435Z,14.27
2018-11-20T23:42:07.047Z,13.47
2018-11-20T23:44:35.467Z,11.63
2018-11-20T23:47:03.993Z,8.73
2018-11-20T23:49:32.160Z,13.20
2018-11-20T23:52:01.251Z,11.97
2018-11-20T23:54:29.553Z,15.30
2018-11-20T23:56:57.756Z,11.73
2018-11-20T23:59:26.034Z,13.60
